Time;durP1;ratioP1;P1;durP2;ratioP2;P2;SDS_P1;SDS_P2;PMS_P1;PMS_P2;Temp;Humidity;BMP_temperature;BMP_pressure;BME280_temperature;BME280_humidity;BME280_pressure;Samples;Min_cycle;Max_cycle;Signal;HPM_P1;HPM_P2
2023/07/29 00:01:11;;;;;;;10.02;4.82;;;;;;;;;;5057323;28;20080;-75
2023/07/29 00:03:37;;;;;;;7.97;5.28;;;;;;;;;;5053465;28;20426;-75
2023/07/29 00:06:03;;;;;;;7.05;4.30;;;;;;;;;;5053704;28;20052;-75
2023/07/29 00:08:29;;;;;;;8.60;5.30;;;;;;;;;;5074844;28;20048;-75
2023/07/29 00:10:55;;;;;;;8.90;4.72;;;;;;;;;;5073730;28;20048;-75
2023/07/29 00:13:21;;;;;;;9.75;5.05;;;;;;;;;;5069719;28;20502;-75
2023/07/29 00:15:47;;;;;;;6.32;4.63;;;;;;;;;;5065527;28;20448;-75
2023/07/29 00:18:13;;;;;;;7.13;4.97;;;;;;;;;;5073568;28;20052;-75
2023/07/29 00:20:39;;;;;;;6.20;4.38;;;;;;;;;;5056717;28;20083;-75
2023/07/29 00:23:05;;;;;;;8.30;4.82;;;;;;;;;;5072516;28;20037;-74
2023/07/29 00:25:31;;;;;;;7.25;4.55;;;;;;;;;;5074864;28;20040;-75
2023/07/29 00:27:59;;;;;;;9.82;4.80;;;;;;;;;;5070425;28;20541;-75
2023/07/29 00:30:25;;;;;;;8.15;4.18;;;;;;;;;;5054520;28;20051;-75
2023/07/29 00:32:51;;;;;;;7.28;4.32;;;;;;;;;;5064294;28;20444;-75
2023/07/29 00:35:17;;;;;;;6.07;4.63;;;;;;;;;;5074490;28;20485;-75
2023/07/29 00:37:43;;;;;;;8.73;5.05;;;;;;;;;;5063782;28;20056;-75
2023/07/29 00:40:17;;;;;;;7.28;4.70;;;;;;;;;;5054385;28;20059;-75
2023/07/29 00:42:43;;;;;;;7.15;4.47;;;;;;;;;;5054428;28;20072;-75
2023/07/29 00:45:09;;;;;;;9.90;5.30;;;;;;;;;;5065365;28;20055;-75
2023/07/29 00:47:36;;;;;;;8.63;4.93;;;;;;;;;;5062202;28;20155;-75
2023/07/29 00:50:02;;;;;;;11.02;5.07;;;;;;;;;;5074361;28;20123;-75
2023/07/29 00:52:28;;;;;;;7.07;5.15;;;;;;;;;;5069220;28;20521;-75
2023/07/29 00:54:54;;;;;;;8.05;5.05;;;;;;;;;;5053987;28;20491;-75
2023/07/29 00:57:21;;;;;;;7.78;4.78;;;;;;;;;;5066507;28;20041;-75
2023/07/29 00:59:47;;;;;;;10.07;5.20;;;;;;;;;;5073028;28;20051;-75
2023/07/29 01:02:13;;;;;;;6.57;5.03;;;;;;;;;;5073541;28;20098;-75
2023/07/29 01:04:40;;;;;;;7.93;5.20;;;;;;;;;;5052788;28;20102;-75
2023/07/29 01:07:20;;;;;;;9.43;5.43;;;;;;;;;;5052204;28;20495;-75
2023/07/29 01:09:58;;;;;;;9.27;5.53;;;;;;;;;;5053582;28;20475;-75
2023/07/29 01:12:25;;;;;;;10.00;6.20;;;;;;;;;;5060808;28;20048;-74
2023/07/29 01:15:03;;;;;;;12.75;6.03;;;;;;;;;;5060480;28;20037;-74
2023/07/29 01:17:42;;;;;;;9.50;5.60;;;;;;;;;;5053209;28;20403;-74
2023/07/29 01:20:09;;;;;;;10.45;5.63;;;;;;;;;;5066153;28;20102;-74
2023/07/29 01:22:36;;;;;;;9.90;5.60;;;;;;;;;;5064883;28;20041;-74
2023/07/29 01:25:03;;;;;;;10.60;4.97;;;;;;;;;;5058616;28;20076;-75
2023/07/29 01:27:29;;;;;;;12.30;6.40;;;;;;;;;;5054996;28;20041;-75
2023/07/29 01:29:56;;;;;;;12.30;5.70;;;;;;;;;;5066891;28;20506;-75
2023/07/29 01:32:42;;;;;;;8.52;5.45;;;;;;;;;;5073227;28;20081;-74
2023/07/29 01:35:08;;;;;;;;;;;;;;;;;;5063120;28;20044;-75
2023/07/29 01:37:35;;;;;;;9.30;6.18;;;;;;;;;;5072331;28;19920;-75
2023/07/29 01:40:02;;;;;;;8.80;5.82;;;;;;;;;;5072734;28;20497;-75
2023/07/29 01:42:28;;;;;;;9.85;6.30;;;;;;;;;;5067116;28;20053;-74
2023/07/29 01:44:54;;;;;;;10.57;5.88;;;;;;;;;;5053383;28;20206;-74
2023/07/29 01:47:22;;;;;;;9.85;5.97;;;;;;;;;;5051876;28;20070;-74
2023/07/29 01:49:48;;;;;;;10.43;6.05;;;;;;;;;;5062079;28;20076;-74
2023/07/29 01:52:14;;;;;;;10.48;5.75;;;;;;;;;;5072620;28;20044;-74
2023/07/29 01:54:40;;;;;;;9.07;6.28;;;;;;;;;;5073224;28;20048;-74
2023/07/29 01:57:06;;;;;;;9.38;6.05;;;;;;;;;;5071456;28;20055;-74
2023/07/29 01:59:32;;;;;;;8.80;5.82;;;;;;;;;;5071128;28;20041;-75
2023/07/29 02:01:59;;;;;;;10.02;6.30;;;;;;;;;;5056105;28;20392;-75
2023/07/29 02:04:25;;;;;;;10.18;6.35;;;;;;;;;;5055846;28;20375;-75
2023/07/29 02:06:51;;;;;;;8.55;5.85;;;;;;;;;;5060543;28;20076;-75
2023/07/29 02:09:17;;;;;;;9.50;6.10;;;;;;;;;;5056565;28;20044;-75
2023/07/29 02:11:43;;;;;;;9.77;6.70;;;;;;;;;;5071408;28;20098;-75
2023/07/29 02:14:09;;;;;;;9.75;6.32;;;;;;;;;;5072656;28;20139;-75
2023/07/29 02:16:36;;;;;;;8.80;6.63;;;;;;;;;;5069436;28;20041;-75
2023/07/29 02:19:03;;;;;;;9.98;6.60;;;;;;;;;;5057422;28;20052;-74
2023/07/29 02:21:29;;;;;;;12.43;6.85;;;;;;;;;;5056688;28;20048;-74
2023/07/29 02:23:55;;;;;;;11.70;7.00;;;;;;;;;;5056785;28;20047;-74
2023/07/29 02:26:21;;;;;;;11.43;6.63;;;;;;;;;;5071388;28;20471;-75
2023/07/29 02:28:47;;;;;;;10.82;6.40;;;;;;;;;;5077067;28;20054;-75
2023/07/29 02:31:23;;;;;;;10.48;6.18;;;;;;;;;;5075609;28;20040;-75
2023/07/29 02:33:49;;;;;;;12.10;6.90;;;;;;;;;;5075843;28;20043;-75
2023/07/29 02:36:15;;;;;;;10.32;6.63;;;;;;;;;;5075057;28;20076;-75
2023/07/29 02:38:42;;;;;;;11.68;6.90;;;;;;;;;;5075048;28;20135;-75
2023/07/29 02:41:09;;;;;;;10.00;6.65;;;;;;;;;;5068761;28;20048;-75
2023/07/29 02:43:36;;;;;;;10.45;6.80;;;;;;;;;;5076158;28;20045;-74
2023/07/29 02:46:02;;;;;;;10.00;6.53;;;;;;;;;;5074526;28;20058;-74
2023/07/29 02:48:29;;;;;;;11.20;7.35;;;;;;;;;;5074698;28;20546;-74
2023/07/29 02:50:55;;;;;;;10.15;6.72;;;;;;;;;;5076199;28;20356;-74
2023/07/29 02:53:22;;;;;;;10.43;6.93;;;;;;;;;;5066413;28;20045;-74
2023/07/29 02:55:49;;;;;;;12.38;6.82;;;;;;;;;;5060901;28;20051;-74
2023/07/29 02:58:15;;;;;;;10.68;6.72;;;;;;;;;;5076231;28;20372;-75
2023/07/29 03:00:41;;;;;;;8.18;6.20;;;;;;;;;;5061709;28;20048;-75
2023/07/29 03:03:11;;;;;;;10.65;6.15;;;;;;;;;;5046478;28;20469;-75
2023/07/29 03:05:38;;;;;;;9.50;6.18;;;;;;;;;;5054436;28;20053;-75
2023/07/29 03:08:04;;;;;;;9.07;5.90;;;;;;;;;;5057460;28;20060;-75
2023/07/29 03:10:30;;;;;;;11.82;6.25;;;;;;;;;;5074524;28;20377;-75
2023/07/29 03:12:56;;;;;;;10.35;6.40;;;;;;;;;;5061296;28;20483;-75
2023/07/29 03:15:26;;;;;;;10.18;6.03;;;;;;;;;;5054592;28;20048;-75
2023/07/29 03:17:52;;;;;;;11.20;6.03;;;;;;;;;;5064294;28;20056;-74
2023/07/29 03:20:19;;;;;;;9.23;6.30;;;;;;;;;;5074964;28;20044;-75
2023/07/29 03:22:46;;;;;;;10.38;5.65;;;;;;;;;;5066564;28;20375;-75
2023/07/29 03:25:12;;;;;;;9.57;6.50;;;;;;;;;;5054304;28;20470;-75
2023/07/29 03:27:39;;;;;;;10.88;6.38;;;;;;;;;;5073432;28;20044;-75
2023/07/29 03:30:05;;;;;;;11.82;5.93;;;;;;;;;;5073785;28;20083;-75
2023/07/29 03:32:32;;;;;;;9.13;6.10;;;;;;;;;;5062234;28;20051;-74
2023/07/29 03:34:58;;;;;;;8.57;5.93;;;;;;;;;;5054189;28;20084;-74
2023/07/29 03:37:24;;;;;;;9.40;6.10;;;;;;;;;;5059723;28;20078;-74
2023/07/29 03:39:52;;;;;;;10.15;6.05;;;;;;;;;;5073729;28;20064;-74
2023/07/29 03:42:18;;;;;;;8.85;5.97;;;;;;;;;;5073278;28;20060;-75
2023/07/29 03:44:44;;;;;;;9.52;5.90;;;;;;;;;;5073816;28;20490;-74
2023/07/29 03:47:10;;;;;;;10.68;6.03;;;;;;;;;;5067324;28;20044;-75
2023/07/29 03:49:37;;;;;;;9.77;5.07;;;;;;;;;;5073903;28;20135;-75
2023/07/29 03:52:03;;;;;;;7.90;5.15;;;;;;;;;;5073772;28;20044;-75
2023/07/29 03:54:29;;;;;;;8.35;4.68;;;;;;;;;;5068287;28;20569;-74
2023/07/29 03:56:55;;;;;;;8.30;5.05;;;;;;;;;;5066248;28;20124;-75
2023/07/29 03:59:22;;;;;;;7.53;5.10;;;;;;;;;;5073774;28;20071;-74
2023/07/29 04:01:49;;;;;;;9.90;5.15;;;;;;;;;;5061616;28;20052;-75
2023/07/29 04:04:15;;;;;;;8.30;4.43;;;;;;;;;;5068050;28;20425;-74
2023/07/29 04:06:41;;;;;;;16.00;4.35;;;;;;;;;;5074891;28;20048;-74
2023/07/29 04:09:07;;;;;;;9.75;4.53;;;;;;;;;;5074864;28;20056;-74
2023/07/29 04:11:34;;;;;;;9.52;4.63;;;;;;;;;;5072901;28;20055;-74
2023/07/29 04:14:00;;;;;;;9.85;4.13;;;;;;;;;;5054469;28;20479;-74
2023/07/29 04:16:28;;;;;;;9.65;4.85;;;;;;;;;;5064656;28;20094;-74
2023/07/29 04:18:54;;;;;;;9.73;4.53;;;;;;;;;;5068730;28;20048;-74
2023/07/29 04:21:20;;;;;;;10.10;4.63;;;;;;;;;;5074624;28;20475;-75
2023/07/29 04:23:46;;;;;;;7.47;4.65;;;;;;;;;;5056033;28;20090;-74
2023/07/29 04:26:12;;;;;;;8.15;4.03;;;;;;;;;;5059331;28;20091;-74
2023/07/29 04:28:39;;;;;;;8.95;5.00;;;;;;;;;;5061103;28;20048;-75
2023/07/29 04:31:05;;;;;;;7.75;4.80;;;;;;;;;;5059030;28;20382;-74
2023/07/29 04:33:31;;;;;;;10.05;4.97;;;;;;;;;;5053794;28;20047;-74
2023/07/29 04:35:57;;;;;;;8.63;4.70;;;;;;;;;;5057267;28;20041;-74
2023/07/29 04:38:25;;;;;;;9.35;4.68;;;;;;;;;;5073414;28;20128;-74
2023/07/29 04:40:51;;;;;;;8.23;4.80;;;;;;;;;;5070475;28;20043;-75
2023/07/29 04:43:17;;;;;;;9.90;4.90;;;;;;;;;;5061173;28;20049;-75
2023/07/29 04:45:43;;;;;;;9.88;5.03;;;;;;;;;;5053839;28;20041;-75
2023/07/29 04:48:09;;;;;;;10.60;4.78;;;;;;;;;;5054426;28;20045;-75
2023/07/29 04:50:36;;;;;;;8.63;4.30;;;;;;;;;;5070165;28;20037;-75
2023/07/29 04:53:02;;;;;;;11.50;4.65;;;;;;;;;;5074091;28;20052;-74
2023/07/29 04:55:28;;;;;;;8.25;4.47;;;;;;;;;;5067507;28;20053;-74
2023/07/29 04:57:54;;;;;;;8.05;4.07;;;;;;;;;;5073564;28;20041;-74
2023/07/29 05:00:20;;;;;;;7.57;4.15;;;;;;;;;;5065589;28;20048;-74
2023/07/29 05:02:46;;;;;;;7.78;3.75;;;;;;;;;;5072964;28;20040;-74
2023/07/29 05:05:12;;;;;;;10.18;4.07;;;;;;;;;;5057632;28;20413;-74
2023/07/29 05:07:38;;;;;;;7.32;4.03;;;;;;;;;;5053577;28;20055;-74
2023/07/29 05:10:04;;;;;;;6.28;3.90;;;;;;;;;;5053586;28;20056;-74
2023/07/29 05:12:32;;;;;;;9.70;4.38;;;;;;;;;;5053520;28;20384;-75
2023/07/29 05:14:59;;;;;;;7.75;4.00;;;;;;;;;;5071040;28;20127;-74
2023/07/29 05:17:25;;;;;;;7.90;3.50;;;;;;;;;;5071278;28;20438;-75
2023/07/29 05:19:51;;;;;;;7.63;3.60;;;;;;;;;;5072337;28;20395;-74
2023/07/29 05:22:17;;;;;;;9.27;4.13;;;;;;;;;;5068732;28;20084;-74
2023/07/29 05:24:44;;;;;;;5.85;3.90;;;;;;;;;;5072935;28;20065;-75
2023/07/29 05:27:10;;;;;;;8.50;3.55;;;;;;;;;;5071592;28;20045;-75
2023/07/29 05:29:36;;;;;;;7.25;4.30;;;;;;;;;;5056665;28;20120;-75
2023/07/29 05:32:02;;;;;;;10.75;4.00;;;;;;;;;;5053123;28;20049;-75
2023/07/29 05:34:28;;;;;;;6.90;4.00;;;;;;;;;;5062947;28;20047;-75
2023/07/29 05:36:54;;;;;;;7.93;4.03;;;;;;;;;;5057779;28;20107;-75
2023/07/29 05:39:20;;;;;;;6.32;3.40;;;;;;;;;;5053246;28;20044;-74
2023/07/29 05:41:47;;;;;;;6.20;3.88;;;;;;;;;;5051908;28;20052;-75
2023/07/29 05:44:13;;;;;;;8.80;3.60;;;;;;;;;;5053613;28;20091;-75
2023/07/29 05:46:39;;;;;;;7.07;3.60;;;;;;;;;;5062220;28;20091;-74
2023/07/29 05:49:05;;;;;;;7.35;4.00;;;;;;;;;;5066625;28;20087;-74
2023/07/29 05:51:31;;;;;;;8.35;4.00;;;;;;;;;;5073006;28;20045;-75
2023/07/29 05:53:57;;;;;;;6.72;3.70;;;;;;;;;;5057979;28;20048;-75
2023/07/29 05:56:23;;;;;;;5.55;3.63;;;;;;;;;;5072915;28;20047;-75
2023/07/29 05:58:49;;;;;;;10.02;3.83;;;;;;;;;;5071491;28;20045;-75
2023/07/29 06:01:15;;;;;;;7.88;4.07;;;;;;;;;;5072524;28;20157;-75
2023/07/29 06:03:41;;;;;;;8.77;4.50;;;;;;;;;;5052641;28;20045;-75
2023/07/29 06:06:08;;;;;;;8.32;3.75;;;;;;;;;;5053666;28;20075;-75
2023/07/29 06:08:34;;;;;;;8.45;3.95;;;;;;;;;;5064056;28;20053;-76
2023/07/29 06:11:00;;;;;;;8.40;3.83;;;;;;;;;;5066692;28;20051;-75
2023/07/29 06:13:26;;;;;;;7.78;4.07;;;;;;;;;;5066071;28;20048;-75
2023/07/29 06:15:53;;;;;;;6.85;3.75;;;;;;;;;;5062974;28;20105;-75
2023/07/29 06:18:19;;;;;;;5.20;4.10;;;;;;;;;;5055366;28;20045;-75
2023/07/29 06:20:45;;;;;;;8.10;4.05;;;;;;;;;;5052217;28;20073;-76
2023/07/29 06:23:11;;;;;;;8.77;3.95;;;;;;;;;;5064704;28;20437;-75
2023/07/29 06:25:37;;;;;;;7.65;4.15;;;;;;;;;;5071966;28;20407;-76
2023/07/29 06:28:03;;;;;;;10.13;4.13;;;;;;;;;;5068069;28;20360;-75
2023/07/29 06:30:29;;;;;;;9.27;3.88;;;;;;;;;;5069534;28;20048;-75
2023/07/29 06:32:55;;;;;;;9.50;4.05;;;;;;;;;;5052541;28;20068;-75
2023/07/29 06:35:21;;;;;;;10.68;4.40;;;;;;;;;;5062617;28;20045;-75
2023/07/29 06:37:47;;;;;;;10.15;4.43;;;;;;;;;;5068647;28;20132;-76
2023/07/29 06:40:13;;;;;;;8.98;3.78;;;;;;;;;;5062970;28;20049;-75
2023/07/29 06:42:39;;;;;;;9.75;3.85;;;;;;;;;;5063583;28;20040;-75
2023/07/29 06:45:06;;;;;;;9.50;3.75;;;;;;;;;;5060253;28;20470;-76
2023/07/29 06:47:32;;;;;;;9.38;3.72;;;;;;;;;;5072438;28;20475;-76
2023/07/29 06:49:58;;;;;;;9.88;4.25;;;;;;;;;;5069632;28;20064;-76
2023/07/29 06:52:24;;;;;;;6.50;3.42;;;;;;;;;;5072532;28;20062;-78
2023/07/29 06:54:51;;;;;;;8.60;4.10;;;;;;;;;;5073764;28;20048;-76
2023/07/29 06:57:17;;;;;;;15.13;4.60;;;;;;;;;;5071526;28;20052;-76
2023/07/29 06:59:43;;;;;;;13.27;4.97;;;;;;;;;;5058970;28;20052;-75
2023/07/29 07:02:09;;;;;;;8.05;3.60;;;;;;;;;;5056182;28;20063;-75
2023/07/29 07:04:35;;;;;;;10.15;4.28;;;;;;;;;;5056398;28;20041;-75
2023/07/29 07:07:01;;;;;;;10.38;4.10;;;;;;;;;;5066648;28;20518;-76
2023/07/29 07:09:27;;;;;;;8.93;4.13;;;;;;;;;;5066867;28;20144;-76
2023/07/29 07:11:53;;;;;;;10.32;3.67;;;;;;;;;;5058572;28;20102;-77
2023/07/29 07:14:19;;;;;;;6.80;4.45;;;;;;;;;;5057380;28;20479;-78
2023/07/29 07:16:45;;;;;;;9.18;4.20;;;;;;;;;;5066852;28;20470;-78
2023/07/29 07:19:11;;;;;;;7.57;4.22;;;;;;;;;;5066223;28;20045;-75
2023/07/29 07:21:37;;;;;;;8.77;4.82;;;;;;;;;;5058836;28;20490;-76
2023/07/29 07:24:03;;;;;;;7.38;4.07;;;;;;;;;;5076193;28;20149;-76
2023/07/29 07:26:29;;;;;;;6.90;4.10;;;;;;;;;;5074670;28;20048;-75
2023/07/29 07:28:56;;;;;;;8.68;4.60;;;;;;;;;;5075887;28;20367;-75
2023/07/29 07:31:22;;;;;;;8.60;3.92;;;;;;;;;;5072726;28;20048;-76
2023/07/29 07:33:48;;;;;;;7.10;3.53;;;;;;;;;;5075707;28;20044;-75
2023/07/29 07:36:15;;;;;;;7.65;3.60;;;;;;;;;;5073802;28;20137;-75
2023/07/29 07:38:41;;;;;;;9.30;3.95;;;;;;;;;;5073876;28;20064;-79
2023/07/29 07:41:08;;;;;;;6.57;3.75;;;;;;;;;;5057027;28;20133;-76
2023/07/29 07:43:34;;;;;;;8.65;3.63;;;;;;;;;;5062834;28;20041;-76
2023/07/29 07:46:01;;;;;;;7.55;4.05;;;;;;;;;;5065904;28;20083;-76
2023/07/29 07:48:30;;;;;;;9.38;3.80;;;;;;;;;;5059330;28;20041;-77
2023/07/29 07:50:57;;;;;;;9.52;3.90;;;;;;;;;;5066539;28;20080;-79
2023/07/29 07:53:25;;;;;;;10.27;3.90;;;;;;;;;;5060463;28;20036;-81
2023/07/29 07:55:54;;;;;;;8.05;3.40;;;;;;;;;;5056914;28;20198;-80
2023/07/29 07:58:20;;;;;;;7.30;3.40;;;;;;;;;;5066588;28;20041;-77
2023/07/29 08:00:46;;;;;;;6.45;3.28;;;;;;;;;;5058088;28;20040;-76
2023/07/29 08:03:12;;;;;;;6.72;3.30;;;;;;;;;;5055429;28;20522;-80
2023/07/29 08:05:38;;;;;;;6.00;3.50;;;;;;;;;;5063204;28;20076;-80
2023/07/29 08:08:04;;;;;;;7.28;3.53;;;;;;;;;;5076181;28;20055;-77
2023/07/29 08:10:30;;;;;;;6.22;3.20;;;;;;;;;;5080321;28;20043;-77
2023/07/29 08:12:56;;;;;;;8.38;3.25;;;;;;;;;;5082325;28;20032;-84
2023/07/29 08:15:23;;;;;;;5.22;3.10;;;;;;;;;;5059290;28;20082;-77
2023/07/29 08:17:49;;;;;;;6.40;3.58;;;;;;;;;;5057055;28;20114;-78
2023/07/29 08:20:15;;;;;;;7.53;3.15;;;;;;;;;;5056804;28;20045;-78
2023/07/29 08:22:41;;;;;;;10.18;3.15;;;;;;;;;;5059682;28;20037;-77
2023/07/29 08:25:07;;;;;;;6.13;2.97;;;;;;;;;;5055300;28;20529;-76
2023/07/29 08:27:34;;;;;;;8.65;2.83;;;;;;;;;;5054612;28;20170;-77
2023/07/29 08:30:00;;;;;;;8.70;3.13;;;;;;;;;;5059346;28;20124;-84
2023/07/29 08:32:26;;;;;;;5.60;2.97;;;;;;;;;;5061659;28;20124;-81
2023/07/29 08:34:52;;;;;;;7.05;3.20;;;;;;;;;;5062985;28;20044;-77
2023/07/29 08:37:18;;;;;;;7.38;3.30;;;;;;;;;;5069456;28;20506;-77
2023/07/29 08:39:44;;;;;;;7.93;3.15;;;;;;;;;;5072900;28;20052;-77
2023/07/29 08:42:12;;;;;;;6.30;3.28;;;;;;;;;;5073805;28;20044;-76
2023/07/29 08:44:55;;;;;;;8.27;2.75;;;;;;;;;;5069794;28;20106;-77
2023/07/29 08:47:26;;;;;;;8.18;2.97;;;;;;;;;;5068662;28;20045;-77
2023/07/29 08:49:52;;;;;;;6.25;3.40;;;;;;;;;;5066232;28;20047;-77
2023/07/29 08:52:19;;;;;;;5.82;2.80;;;;;;;;;;5069906;28;20071;-77
2023/07/29 08:54:45;;;;;;;5.03;2.60;;;;;;;;;;5072110;28;20513;-77
2023/07/29 08:57:11;;;;;;;9.00;3.08;;;;;;;;;;5064892;28;20110;-77
2023/07/29 08:59:38;;;;;;;3.97;2.78;;;;;;;;;;5056566;28;20075;-77
2023/07/29 09:02:07;;;;;;;5.30;2.53;;;;;;;;;;5064714;28;20123;-76
2023/07/29 09:04:33;;;;;;;4.90;2.55;;;;;;;;;;5065908;28;20488;-76
2023/07/29 09:06:59;;;;;;;5.07;2.40;;;;;;;;;;5059549;28;20049;-76
2023/07/29 09:09:26;;;;;;;5.88;2.40;;;;;;;;;;5061598;28;20045;-77
2023/07/29 09:11:52;;;;;;;4.35;2.55;;;;;;;;;;5073153;28;20075;-76
2023/07/29 09:14:21;;;;;;;6.22;2.80;;;;;;;;;;5072021;28;20052;-78
2023/07/29 09:16:47;;;;;;;6.70;2.65;;;;;;;;;;5078210;28;20044;-80
2023/07/29 09:19:13;;;;;;;6.40;2.50;;;;;;;;;;5065304;28;20041;-80
2023/07/29 09:21:40;;;;;;;8.63;3.22;;;;;;;;;;5075577;28;20040;-79
2023/07/29 09:24:07;;;;;;;5.90;2.58;;;;;;;;;;5066385;28;20048;-79
2023/07/29 09:26:33;;;;;;;7.13;2.83;;;;;;;;;;5059966;28;20075;-79
2023/07/29 09:29:00;;;;;;;5.85;2.78;;;;;;;;;;5070850;28;20046;-79
2023/07/29 09:31:27;;;;;;;4.78;2.47;;;;;;;;;;5058548;28;20059;-80
2023/07/29 09:33:58;;;;;;;5.57;2.40;;;;;;;;;;5059204;28;20051;-80
2023/07/29 09:36:24;;;;;;;5.85;2.60;;;;;;;;;;5056655;28;20040;-80
2023/07/29 09:38:57;;;;;;;7.43;2.72;;;;;;;;;;5057568;28;20041;-79
2023/07/29 09:41:27;;;;;;;5.82;2.20;;;;;;;;;;5066855;28;20053;-82
2023/07/29 09:44:00;;;;;;;3.45;2.50;;;;;;;;;;5074884;28;20044;-79
2023/07/29 09:46:32;;;;;;;5.00;2.53;;;;;;;;;;5057885;28;20407;-79
2023/07/29 09:48:59;;;;;;;5.38;2.72;;;;;;;;;;5076562;28;20544;-79
2023/07/29 09:51:25;;;;;;;6.32;2.78;;;;;;;;;;5065400;28;20045;-79
2023/07/29 09:53:52;;;;;;;4.75;2.42;;;;;;;;;;5056283;28;20040;-79
2023/07/29 09:56:18;;;;;;;4.65;2.80;;;;;;;;;;5074658;28;20044;-79
2023/07/29 09:58:48;;;;;;;6.43;2.70;;;;;;;;;;5075605;28;20442;-79
2023/07/29 10:01:15;;;;;;;4.72;2.10;;;;;;;;;;5059830;28;20049;-79
2023/07/29 10:03:41;;;;;;;4.03;2.22;;;;;;;;;;5075272;28;20048;-80
2023/07/29 10:06:07;;;;;;;5.43;2.20;;;;;;;;;;5074651;28;20534;-79
2023/07/29 10:08:40;;;;;;;5.00;1.95;;;;;;;;;;5067003;28;20484;-79
2023/07/29 10:11:07;;;;;;;3.72;2.20;;;;;;;;;;5061871;28;20045;-79
2023/07/29 10:13:33;;;;;;;3.97;2.00;;;;;;;;;;5067885;28;20498;-79
2023/07/29 10:16:02;;;;;;;3.70;2.47;;;;;;;;;;5072502;28;20037;-79
2023/07/29 10:18:29;;;;;;;3.08;2.20;;;;;;;;;;5078799;28;20048;-80
2023/07/29 10:20:56;;;;;;;3.10;2.00;;;;;;;;;;5076197;28;20041;-84
2023/07/29 10:23:25;;;;;;;2.80;1.90;;;;;;;;;;5073259;28;20048;-84
2023/07/29 10:26:04;;;;;;;4.22;2.00;;;;;;;;;;5074132;28;20156;-79
2023/07/29 10:28:31;;;;;;;5.00;2.30;;;;;;;;;;5074855;28;20048;-79
2023/07/29 10:30:58;;;;;;;3.50;2.40;;;;;;;;;;5075156;28;20041;-79
2023/07/29 10:33:24;;;;;;;3.83;2.58;;;;;;;;;;5073634;28;20040;-79
2023/07/29 10:35:50;;;;;;;2.67;2.05;;;;;;;;;;5065711;28;20037;-78
2023/07/29 10:38:17;;;;;;;4.60;2.67;;;;;;;;;;5062286;28;20048;-82
2023/07/29 10:40:46;;;;;;;4.10;2.30;;;;;;;;;;5079739;28;20037;-80
2023/07/29 10:43:13;;;;;;;6.57;2.40;;;;;;;;;;5076432;28;20051;-82
2023/07/29 10:45:48;;;;;;;5.95;2.28;;;;;;;;;;5080275;28;20075;-80
2023/07/29 10:48:52;;;;;;;;;;;;;;;;;;;;;
2023/07/29 10:51:31;;;;;;;3.92;2.40;;;;;;;;;;5076177;28;20475;-79
2023/07/29 10:53:59;;;;;;;4.07;2.40;;;;;;;;;;5076750;28;20056;-79
2023/07/29 10:56:27;;;;;;;5.03;2.20;;;;;;;;;;5085604;28;20066;-84
2023/07/29 10:58:55;;;;;;;4.18;2.10;;;;;;;;;;5076954;28;20380;-79
2023/07/29 11:01:34;;;;;;;4.15;2.10;;;;;;;;;;5077127;28;20100;-79
2023/07/29 11:04:18;;;;;;;3.58;2.17;;;;;;;;;;5059271;28;20128;-79
2023/07/29 11:07:03;;;;;;;2.92;2.10;;;;;;;;;;5068193;28;20037;-79
2023/07/29 11:09:41;;;;;;;5.32;2.30;;;;;;;;;;5073834;28;20580;-79
2023/07/29 11:12:26;;;;;;;4.38;2.53;;;;;;;;;;5064848;28;20045;-78
2023/07/29 11:14:52;;;;;;;6.30;2.50;;;;;;;;;;5080859;28;20486;-82
2023/07/29 11:17:18;;;;;;;5.45;2.50;;;;;;;;;;5056291;28;20384;-80
2023/07/29 11:19:45;;;;;;;4.70;2.30;;;;;;;;;;5077088;28;20051;-78
2023/07/29 11:22:12;;;;;;;6.38;2.53;;;;;;;;;;5078418;28;20059;-79
2023/07/29 11:24:38;;;;;;;5.15;2.00;;;;;;;;;;5078464;28;20048;-79
2023/07/29 11:27:04;;;;;;;3.50;2.10;;;;;;;;;;5076044;28;20098;-79
2023/07/29 11:29:30;;;;;;;4.00;2.47;;;;;;;;;;5076376;28;20475;-79
2023/07/29 11:31:56;;;;;;;3.42;2.10;;;;;;;;;;5069483;28;20124;-79
2023/07/29 11:34:35;;;;;;;2.92;2.00;;;;;;;;;;5074646;28;20056;-79
2023/07/29 11:37:01;;;;;;;4.75;2.15;;;;;;;;;;5072316;28;20067;-79
2023/07/29 11:39:27;;;;;;;2.47;2.13;;;;;;;;;;5076587;28;20093;-78
2023/07/29 11:41:53;;;;;;;4.53;1.80;;;;;;;;;;5076251;28;20068;-79
2023/07/29 11:44:19;;;;;;;5.22;2.10;;;;;;;;;;5075573;28;20486;-79
2023/07/29 11:46:45;;;;;;;3.33;2.03;;;;;;;;;;5070543;28;20155;-79
2023/07/29 11:49:11;;;;;;;5.05;2.10;;;;;;;;;;5059858;28;20103;-78
2023/07/29 11:51:37;;;;;;;3.30;2.10;;;;;;;;;;5056165;28;20040;-78
2023/07/29 11:54:04;;;;;;;5.38;2.60;;;;;;;;;;5077098;28;20407;-78
2023/07/29 11:56:33;;;;;;;6.18;2.45;;;;;;;;;;5073867;28;20045;-78
2023/07/29 11:58:59;;;;;;;3.65;2.20;;;;;;;;;;5067220;28;20060;-78
2023/07/29 12:01:25;;;;;;;3.00;2.00;;;;;;;;;;5074048;28;20049;-79
2023/07/29 12:03:51;;;;;;;5.43;2.40;;;;;;;;;;5075690;28;20125;-81
2023/07/29 12:06:17;;;;;;;4.25;2.25;;;;;;;;;;5077424;28;20442;-79
2023/07/29 12:08:44;;;;;;;3.63;2.25;;;;;;;;;;5078307;28;20119;-79
2023/07/29 12:11:10;;;;;;;4.60;2.13;;;;;;;;;;5080631;28;20044;-80
2023/07/29 12:13:39;;;;;;;6.15;2.55;;;;;;;;;;5078973;28;20118;-80
2023/07/29 12:16:06;;;;;;;3.83;2.50;;;;;;;;;;5063382;28;20084;-79
2023/07/29 12:18:35;;;;;;;5.00;2.22;;;;;;;;;;5059133;28;20048;-79
2023/07/29 12:21:01;;;;;;;4.18;2.28;;;;;;;;;;5066552;28;20482;-78
2023/07/29 12:23:27;;;;;;;5.30;2.45;;;;;;;;;;5074611;28;20048;-79
2023/07/29 12:25:58;;;;;;;3.58;2.30;;;;;;;;;;5064276;28;20096;-78
2023/07/29 12:28:24;;;;;;;6.63;2.20;;;;;;;;;;5074355;28;20367;-79
2023/07/29 12:30:56;;;;;;;4.28;2.42;;;;;;;;;;5074732;28;20044;-78
2023/07/29 12:33:32;;;;;;;5.93;2.45;;;;;;;;;;5065657;28;20170;-78
2023/07/29 12:35:58;;;;;;;4.28;2.28;;;;;;;;;;5073005;28;20044;-78
2023/07/29 12:38:28;;;;;;;4.85;2.60;;;;;;;;;;5072303;28;20053;-78
2023/07/29 12:40:54;;;;;;;4.97;2.55;;;;;;;;;;5061820;28;20050;-78
2023/07/29 12:43:20;;;;;;;4.03;2.25;;;;;;;;;;5058378;28;20573;-78
2023/07/29 12:45:46;;;;;;;6.00;2.53;;;;;;;;;;5061833;28;20041;-78
2023/07/29 12:48:12;;;;;;;3.65;2.10;;;;;;;;;;5074208;28;20391;-78
2023/07/29 12:50:42;;;;;;;4.10;2.30;;;;;;;;;;5072332;28;20383;-78
2023/07/29 12:53:11;;;;;;;4.82;2.40;;;;;;;;;;5074191;28;20051;-78
2023/07/29 12:55:37;;;;;;;4.03;2.20;;;;;;;;;;5073693;28;20037;-78
2023/07/29 12:58:04;;;;;;;5.32;2.92;;;;;;;;;;5073683;28;20045;-78
2023/07/29 13:00:30;;;;;;;4.55;2.40;;;;;;;;;;5074071;28;20040;-78
2023/07/29 13:02:56;;;;;;;3.92;2.45;;;;;;;;;;5074832;28;20044;-79
2023/07/29 13:05:23;;;;;;;4.45;2.33;;;;;;;;;;5067564;28;20068;-79
2023/07/29 13:07:49;;;;;;;4.40;2.67;;;;;;;;;;5075083;28;20123;-79
2023/07/29 13:10:18;;;;;;;5.47;2.80;;;;;;;;;;5074751;28;20040;-79
2023/07/29 13:12:44;;;;;;;7.63;3.20;;;;;;;;;;5053629;28;20041;-79
2023/07/29 13:15:10;;;;;;;6.95;2.38;;;;;;;;;;5056435;28;20044;-80
2023/07/29 13:17:37;;;;;;;4.00;2.60;;;;;;;;;;5061358;28;20087;-80
2023/07/29 13:20:04;;;;;;;7.10;2.92;;;;;;;;;;5059851;28;20052;-80
2023/07/29 13:22:30;;;;;;;5.90;2.97;;;;;;;;;;5059463;28;20098;-79
2023/07/29 13:24:56;;;;;;;4.95;2.95;;;;;;;;;;5059296;28;20041;-80
2023/07/29 13:27:23;;;;;;;6.07;3.03;;;;;;;;;;5059820;28;20143;-79
2023/07/29 13:29:50;;;;;;;9.00;3.30;;;;;;;;;;5059042;28;20049;-80
2023/07/29 13:32:16;;;;;;;5.25;2.92;;;;;;;;;;5066642;28;20123;-79
2023/07/29 13:34:42;;;;;;;5.82;2.88;;;;;;;;;;5078972;28;20048;-83
2023/07/29 13:37:08;;;;;;;6.32;2.90;;;;;;;;;;5077770;28;20102;-80
2023/07/29 13:39:34;;;;;;;5.35;2.95;;;;;;;;;;5074105;28;20045;-80
2023/07/29 13:42:00;;;;;;;5.15;2.50;;;;;;;;;;5059993;28;20047;-80
2023/07/29 13:44:26;;;;;;;6.53;2.60;;;;;;;;;;5060452;28;20056;-79
2023/07/29 13:46:52;;;;;;;5.10;2.40;;;;;;;;;;5063426;28;21722;-80
2023/07/29 13:49:18;;;;;;;5.53;2.58;;;;;;;;;;5068474;28;20591;-80
2023/07/29 13:51:45;;;;;;;5.00;2.70;;;;;;;;;;5073751;28;20078;-79
2023/07/29 13:54:11;;;;;;;6.85;2.38;;;;;;;;;;5069234;28;20040;-79
2023/07/29 13:56:37;;;;;;;5.13;2.78;;;;;;;;;;5080363;28;20056;-79
2023/07/29 13:59:03;;;;;;;4.38;2.60;;;;;;;;;;5085601;28;20099;-79
2023/07/29 14:01:29;;;;;;;5.68;2.88;;;;;;;;;;5066224;28;20045;-79
2023/07/29 14:03:55;;;;;;;3.90;2.40;;;;;;;;;;5070566;28;20051;-79
2023/07/29 14:06:21;;;;;;;6.07;2.88;;;;;;;;;;5064222;28;20045;-80
2023/07/29 14:08:47;;;;;;;5.07;3.05;;;;;;;;;;5068226;28;20072;-78
2023/07/29 14:11:13;;;;;;;6.40;2.88;;;;;;;;;;5074902;28;20046;-78
2023/07/29 14:13:39;;;;;;;4.07;2.60;;;;;;;;;;5075174;28;20479;-79
2023/07/29 14:16:05;;;;;;;6.95;3.08;;;;;;;;;;5075802;28;20059;-80
2023/07/29 14:18:31;;;;;;;6.20;3.15;;;;;;;;;;5061207;28;20045;-80
2023/07/29 14:20:58;;;;;;;4.68;3.25;;;;;;;;;;5057054;28;20124;-79
2023/07/29 14:23:24;;;;;;;5.55;3.00;;;;;;;;;;5056683;28;20053;-79
2023/07/29 14:25:50;;;;;;;6.20;3.05;;;;;;;;;;5058697;28;20497;-78
2023/07/29 14:28:16;;;;;;;7.03;2.90;;;;;;;;;;5074778;28;20185;-79
2023/07/29 14:30:42;;;;;;;6.00;3.00;;;;;;;;;;5075176;28;20360;-78
2023/07/29 14:33:08;;;;;;;5.50;2.92;;;;;;;;;;5076054;28;20067;-78
2023/07/29 14:35:34;;;;;;;5.72;3.20;;;;;;;;;;5073180;28;20045;-78
2023/07/29 14:38:00;;;;;;;6.95;2.67;;;;;;;;;;5073867;28;20530;-78
2023/07/29 14:40:27;;;;;;;5.55;3.13;;;;;;;;;;5058286;28;20041;-79
2023/07/29 14:42:53;;;;;;;4.95;2.80;;;;;;;;;;5066600;28;20044;-78